sensor_id;sensor_type;location;lat;lon;timestamp;pressure;altitude;pressure_sealevel;temperature;humidity
19751;BME280;4663;49.120;9.730;2023-08-21T00:02:18;98548.09;;;26.77;71.70
19751;BME280;4663;49.120;9.730;2023-08-21T00:04:43;98536.66;;;26.29;73.77
19751;BME280;4663;49.120;9.730;2023-08-21T00:07:09;98537.91;;;26.38;72.94
19751;BME280;4663;49.120;9.730;2023-08-21T00:09:35;98540.97;;;26.42;73.50
19751;BME280;4663;49.120;9.730;2023-08-21T00:12:01;98543.53;;;26.66;72.47
19751;BME280;4663;49.120;9.730;2023-08-21T00:14:26;98542.38;;;26.44;73.17
19751;BME280;4663;49.120;9.730;2023-08-21T00:16:51;98536.47;;;26.53;72.89
19751;BME280;4663;49.120;9.730;2023-08-21T00:19:17;98535.41;;;26.54;72.47
19751;BME280;4663;49.120;9.730;2023-08-21T00:21:42;98537.06;;;26.55;72.68
19751;BME280;4663;49.120;9.730;2023-08-21T00:24:08;98546.81;;;26.85;71.89
19751;BME280;4663;49.120;9.730;2023-08-21T00:26:33;98550.38;;;26.63;72.68
19751;BME280;4663;49.120;9.730;2023-08-21T00:28:59;98554.56;;;26.31;73.99
19751;BME280;4663;49.120;9.730;2023-08-21T00:31:24;98553.56;;;26.20;73.78
19751;BME280;4663;49.120;9.730;2023-08-21T00:33:50;98555.91;;;26.29;74.04
19751;BME280;4663;49.120;9.730;2023-08-21T00:36:15;98544.03;;;26.63;72.78
19751;BME280;4663;49.120;9.730;2023-08-21T00:38:41;98544.72;;;26.53;72.79
19751;BME280;4663;49.120;9.730;2023-08-21T00:41:06;98541.47;;;26.56;72.84
19751;BME280;4663;49.120;9.730;2023-08-21T00:43:32;98545.97;;;26.62;72.78
19751;BME280;4663;49.120;9.730;2023-08-21T00:45:57;98541.53;;;26.61;73.12
19751;BME280;4663;49.120;9.730;2023-08-21T00:48:23;98548.47;;;26.46;73.57
19751;BME280;4663;49.120;9.730;2023-08-21T00:50:49;98531.44;;;26.50;73.47
19751;BME280;4663;49.120;9.730;2023-08-21T00:53:15;98539.28;;;26.18;74.23
19751;BME280;4663;49.120;9.730;2023-08-21T00:55:41;98532.66;;;26.54;73.45
19751;BME280;4663;49.120;9.730;2023-08-21T00:58:11;98533.22;;;26.39;73.69
19751;BME280;4663;49.120;9.730;2023-08-21T01:00:38;98533.91;;;26.29;73.86
19751;BME280;4663;49.120;9.730;2023-08-21T01:03:04;98533.59;;;26.82;72.64
19751;BME280;4663;49.120;9.730;2023-08-21T01:05:29;98518.97;;;26.42;73.12
19751;BME280;4663;49.120;9.730;2023-08-21T01:08:01;98529.06;;;26.36;73.59
19751;BME280;4663;49.120;9.730;2023-08-21T01:10:39;98523.44;;;26.09;74.87
19751;BME280;4663;49.120;9.730;2023-08-21T01:13:14;98518.13;;;26.41;73.39
19751;BME280;4663;49.120;9.730;2023-08-21T01:15:45;98522.66;;;26.30;73.88
19751;BME280;4663;49.120;9.730;2023-08-21T01:18:13;98522.38;;;26.49;73.49
19751;BME280;4663;49.120;9.730;2023-08-21T01:20:40;98523.75;;;26.29;73.68
19751;BME280;4663;49.120;9.730;2023-08-21T01:23:06;98526.75;;;26.11;74.07
19751;BME280;4663;49.120;9.730;2023-08-21T01:25:31;98521.44;;;26.21;73.44
19751;BME280;4663;49.120;9.730;2023-08-21T01:27:57;98521.03;;;26.12;73.53
19751;BME280;4663;49.120;9.730;2023-08-21T01:30:23;98534.59;;;26.02;74.07
19751;BME280;4663;49.120;9.730;2023-08-21T01:35:29;98528.94;;;26.09;73.80
19751;BME280;4663;49.120;9.730;2023-08-21T01:37:55;98524.84;;;25.94;73.70
19751;BME280;4663;49.120;9.730;2023-08-21T01:40:24;98525.72;;;25.82;74.00
19751;BME280;4663;49.120;9.730;2023-08-21T01:42:52;98528.72;;;25.64;74.92
19751;BME280;4663;49.120;9.730;2023-08-21T01:45:18;98528.06;;;25.56;75.21
19751;BME280;4663;49.120;9.730;2023-08-21T01:47:43;98523.22;;;25.81;74.19
19751;BME280;4663;49.120;9.730;2023-08-21T01:50:08;98525.91;;;25.76;74.20
19751;BME280;4663;49.120;9.730;2023-08-21T01:52:34;98522.16;;;25.36;75.52
19751;BME280;4663;49.120;9.730;2023-08-21T01:54:59;98513.50;;;25.27;75.65
19751;BME280;4663;49.120;9.730;2023-08-21T01:57:25;98524.25;;;25.75;74.61
19751;BME280;4663;49.120;9.730;2023-08-21T01:59:50;98516.25;;;26.07;73.43
19751;BME280;4663;49.120;9.730;2023-08-21T02:02:16;98510.28;;;25.93;73.88
19751;BME280;4663;49.120;9.730;2023-08-21T02:04:41;98521.56;;;25.63;74.54
19751;BME280;4663;49.120;9.730;2023-08-21T02:07:07;98519.69;;;25.22;76.49
19751;BME280;4663;49.120;9.730;2023-08-21T02:09:33;98511.69;;;25.33;75.11
19751;BME280;4663;49.120;9.730;2023-08-21T02:11:58;98516.81;;;25.29;75.48
19751;BME280;4663;49.120;9.730;2023-08-21T02:14:24;98516.19;;;25.39;75.50
19751;BME280;4663;49.120;9.730;2023-08-21T02:16:49;98525.03;;;25.41;75.15
19751;BME280;4663;49.120;9.730;2023-08-21T02:19:14;98518.09;;;25.38;75.18
19751;BME280;4663;49.120;9.730;2023-08-21T02:21:40;98515.72;;;25.59;75.06
19751;BME280;4663;49.120;9.730;2023-08-21T02:24:05;98509.72;;;25.45;75.04
19751;BME280;4663;49.120;9.730;2023-08-21T02:26:30;98522.91;;;25.31;75.54
19751;BME280;4663;49.120;9.730;2023-08-21T02:28:56;98522.28;;;25.41;75.27
19751;BME280;4663;49.120;9.730;2023-08-21T02:31:22;98517.88;;;25.57;74.92
19751;BME280;4663;49.120;9.730;2023-08-21T02:33:48;98522.69;;;25.50;75.01
19751;BME280;4663;49.120;9.730;2023-08-21T02:36:15;98518.09;;;25.38;75.33
19751;BME280;4663;49.120;9.730;2023-08-21T02:38:40;98512.38;;;25.57;75.28
19751;BME280;4663;49.120;9.730;2023-08-21T02:41:06;98521.19;;;25.42;74.79
19751;BME280;4663;49.120;9.730;2023-08-21T02:43:31;98530.84;;;25.45;75.09
19751;BME280;4663;49.120;9.730;2023-08-21T02:45:56;98517.75;;;25.35;75.04
19751;BME280;4663;49.120;9.730;2023-08-21T02:48:22;98527.63;;;25.48;75.19
19751;BME280;4663;49.120;9.730;2023-08-21T02:50:48;98515.78;;;25.18;75.86
19751;BME280;4663;49.120;9.730;2023-08-21T02:53:14;98520.41;;;25.17;75.90
19751;BME280;4663;49.120;9.730;2023-08-21T02:55:39;98519.63;;;25.05;76.36
19751;BME280;4663;49.120;9.730;2023-08-21T02:58:04;98523.53;;;24.68;77.42
19751;BME280;4663;49.120;9.730;2023-08-21T03:00:30;98521.03;;;24.66;77.17
19751;BME280;4663;49.120;9.730;2023-08-21T03:02:55;98521.53;;;24.63;77.42
19751;BME280;4663;49.120;9.730;2023-08-21T03:05:20;98523.38;;;24.99;76.31
19751;BME280;4663;49.120;9.730;2023-08-21T03:07:46;98523.75;;;25.20;75.51
19751;BME280;4663;49.120;9.730;2023-08-21T03:10:11;98529.03;;;25.09;75.68
19751;BME280;4663;49.120;9.730;2023-08-21T03:12:37;98530.50;;;25.00;76.17
19751;BME280;4663;49.120;9.730;2023-08-21T03:15:03;98531.94;;;25.02;75.74
19751;BME280;4663;49.120;9.730;2023-08-21T03:17:28;98526.00;;;24.94;75.78
19751;BME280;4663;49.120;9.730;2023-08-21T03:19:53;98522.13;;;25.07;75.58
19751;BME280;4663;49.120;9.730;2023-08-21T03:22:19;98530.50;;;25.00;75.62
19751;BME280;4663;49.120;9.730;2023-08-21T03:24:44;98525.81;;;24.59;76.65
19751;BME280;4663;49.120;9.730;2023-08-21T03:27:10;98526.59;;;24.84;75.87
19751;BME280;4663;49.120;9.730;2023-08-21T03:29:35;98526.38;;;24.85;75.75
19751;BME280;4663;49.120;9.730;2023-08-21T03:32:00;98522.97;;;24.66;76.48
19751;BME280;4663;49.120;9.730;2023-08-21T03:34:26;98525.09;;;24.52;76.79
19751;BME280;4663;49.120;9.730;2023-08-21T03:36:51;98518.28;;;24.54;76.43
19751;BME280;4663;49.120;9.730;2023-08-21T03:39:16;98524.91;;;24.95;74.94
19751;BME280;4663;49.120;9.730;2023-08-21T03:41:42;98527.88;;;25.05;75.20
19751;BME280;4663;49.120;9.730;2023-08-21T03:44:08;98527.94;;;24.81;75.29
19751;BME280;4663;49.120;9.730;2023-08-21T03:46:33;98527.59;;;24.53;75.83
19751;BME280;4663;49.120;9.730;2023-08-21T03:48:58;98529.63;;;24.34;76.49
19751;BME280;4663;49.120;9.730;2023-08-21T03:51:24;98528.16;;;24.79;75.96
19751;BME280;4663;49.120;9.730;2023-08-21T03:53:50;98531.94;;;24.90;74.97
19751;BME280;4663;49.120;9.730;2023-08-21T03:56:15;98533.41;;;24.93;75.09
19751;BME280;4663;49.120;9.730;2023-08-21T03:58:41;98545.56;;;24.61;75.98
19751;BME280;4663;49.120;9.730;2023-08-21T04:01:06;98544.38;;;24.57;76.10
19751;BME280;4663;49.120;9.730;2023-08-21T04:03:31;98546.78;;;24.41;76.18
19751;BME280;4663;49.120;9.730;2023-08-21T04:05:58;98541.06;;;24.79;74.96
19751;BME280;4663;49.120;9.730;2023-08-21T04:08:24;98549.16;;;24.86;74.93
19751;BME280;4663;49.120;9.730;2023-08-21T04:10:50;98551.41;;;24.89;74.72
19751;BME280;4663;49.120;9.730;2023-08-21T04:13:17;98551.19;;;24.43;76.73
19751;BME280;4663;49.120;9.730;2023-08-21T04:15:46;98552.00;;;24.07;77.69
19751;BME280;4663;49.120;9.730;2023-08-21T04:18:11;98555.63;;;24.44;76.67
19751;BME280;4663;49.120;9.730;2023-08-21T04:20:37;98550.00;;;24.26;76.95
19751;BME280;4663;49.120;9.730;2023-08-21T04:23:03;98554.28;;;24.22;76.82
19751;BME280;4663;49.120;9.730;2023-08-21T04:25:28;98550.38;;;24.42;76.87
19751;BME280;4663;49.120;9.730;2023-08-21T04:27:53;98548.44;;;24.43;76.06
19751;BME280;4663;49.120;9.730;2023-08-21T04:30:19;98549.16;;;24.50;75.97
19751;BME280;4663;49.120;9.730;2023-08-21T04:32:44;98548.69;;;24.41;76.21
19751;BME280;4663;49.120;9.730;2023-08-21T04:35:10;98555.88;;;24.66;75.49
19751;BME280;4663;49.120;9.730;2023-08-21T04:37:38;98548.81;;;24.70;75.82
19751;BME280;4663;49.120;9.730;2023-08-21T04:40:08;98557.53;;;24.79;76.16
19751;BME280;4663;49.120;9.730;2023-08-21T04:42:33;98556.81;;;24.72;75.69
19751;BME280;4663;49.120;9.730;2023-08-21T04:44:59;98552.97;;;24.49;76.69
19751;BME280;4663;49.120;9.730;2023-08-21T04:47:25;98556.06;;;24.28;76.91
19751;BME280;4663;49.120;9.730;2023-08-21T04:49:52;98559.78;;;24.46;77.09
19751;BME280;4663;49.120;9.730;2023-08-21T04:52:18;98557.88;;;24.35;77.14
19751;BME280;4663;49.120;9.730;2023-08-21T04:54:43;98565.97;;;24.53;77.06
19751;BME280;4663;49.120;9.730;2023-08-21T04:57:10;98561.44;;;24.71;76.00
19751;BME280;4663;49.120;9.730;2023-08-21T04:59:35;98567.41;;;24.32;77.34
19751;BME280;4663;49.120;9.730;2023-08-21T05:02:01;98563.22;;;24.18;77.34
19751;BME280;4663;49.120;9.730;2023-08-21T05:04:27;98563.56;;;23.97;77.82
19751;BME280;4663;49.120;9.730;2023-08-21T05:06:52;98570.97;;;23.78;78.99
19751;BME280;4663;49.120;9.730;2023-08-21T05:09:17;98558.81;;;24.28;77.47
19751;BME280;4663;49.120;9.730;2023-08-21T05:11:43;98573.91;;;24.07;78.33
19751;BME280;4663;49.120;9.730;2023-08-21T05:14:08;98569.53;;;24.30;77.70
19751;BME280;4663;49.120;9.730;2023-08-21T05:16:34;98573.47;;;24.22;78.07
19751;BME280;4663;49.120;9.730;2023-08-21T05:19:00;98571.00;;;24.69;76.34
19751;BME280;4663;49.120;9.730;2023-08-21T05:21:25;98578.19;;;24.03;78.77
19751;BME280;4663;49.120;9.730;2023-08-21T05:23:51;98578.47;;;24.13;77.69
19751;BME280;4663;49.120;9.730;2023-08-21T05:26:17;98578.22;;;24.27;77.48
19751;BME280;4663;49.120;9.730;2023-08-21T05:28:42;98583.94;;;24.13;78.49
19751;BME280;4663;49.120;9.730;2023-08-21T05:31:07;98584.78;;;24.26;77.59
19751;BME280;4663;49.120;9.730;2023-08-21T05:33:33;98583.94;;;24.01;78.56
19751;BME280;4663;49.120;9.730;2023-08-21T05:35:58;98580.03;;;24.21;77.54
19751;BME280;4663;49.120;9.730;2023-08-21T05:38:24;98595.91;;;23.88;78.79
19751;BME280;4663;49.120;9.730;2023-08-21T05:40:49;98586.34;;;24.34;77.80
19751;BME280;4663;49.120;9.730;2023-08-21T05:43:16;98583.69;;;24.03;78.71
19751;BME280;4663;49.120;9.730;2023-08-21T05:45:41;98578.88;;;25.30;75.29
19751;BME280;4663;49.120;9.730;2023-08-21T05:48:07;98591.00;;;24.33;77.44
19751;BME280;4663;49.120;9.730;2023-08-21T05:50:33;98578.84;;;25.88;73.84
19751;BME280;4663;49.120;9.730;2023-08-21T05:52:58;98584.94;;;25.90;73.86
19751;BME280;4663;49.120;9.730;2023-08-21T05:55:26;98585.56;;;26.44;72.65
19751;BME280;4663;49.120;9.730;2023-08-21T05:57:52;98589.72;;;26.12;72.73
19751;BME280;4663;49.120;9.730;2023-08-21T06:00:17;98594.06;;;25.50;75.41
19751;BME280;4663;49.120;9.730;2023-08-21T06:02:43;98590.53;;;26.64;72.14
19751;BME280;4663;49.120;9.730;2023-08-21T06:05:08;98599.88;;;25.36;74.41
19751;BME280;4663;49.120;9.730;2023-08-21T06:07:34;98594.63;;;26.79;71.45
19751;BME280;4663;49.120;9.730;2023-08-21T06:09:59;98599.69;;;28.09;68.38
19751;BME280;4663;49.120;9.730;2023-08-21T06:12:25;98604.59;;;28.35;67.40
19751;BME280;4663;49.120;9.730;2023-08-21T06:14:50;98597.25;;;28.89;65.85
19751;BME280;4663;49.120;9.730;2023-08-21T06:17:15;98609.16;;;29.59;63.76
19751;BME280;4663;49.120;9.730;2023-08-21T06:19:41;98607.75;;;28.92;64.95
19751;BME280;4663;49.120;9.730;2023-08-21T06:22:07;98614.72;;;27.69;67.98
19751;BME280;4663;49.120;9.730;2023-08-21T06:24:32;98614.97;;;26.43;71.34
19751;BME280;4663;49.120;9.730;2023-08-21T06:26:57;98608.38;;;26.79;71.11
19751;BME280;4663;49.120;9.730;2023-08-21T06:29:24;98610.25;;;26.95;70.25
19751;BME280;4663;49.120;9.730;2023-08-21T06:31:49;98610.78;;;27.59;69.35
19751;BME280;4663;49.120;9.730;2023-08-21T06:34:15;98612.94;;;26.90;70.83
19751;BME280;4663;49.120;9.730;2023-08-21T06:36:40;98618.84;;;28.27;67.62
19751;BME280;4663;49.120;9.730;2023-08-21T06:39:05;98614.44;;;27.93;68.21
19751;BME280;4663;49.120;9.730;2023-08-21T06:41:31;98619.50;;;28.06;68.67
19751;BME280;4663;49.120;9.730;2023-08-21T06:43:57;98617.84;;;28.05;68.30
19751;BME280;4663;49.120;9.730;2023-08-21T06:46:22;98613.81;;;27.35;69.85
19751;BME280;4663;49.120;9.730;2023-08-21T06:48:47;98616.63;;;27.18;70.82
19751;BME280;4663;49.120;9.730;2023-08-21T06:51:15;98622.47;;;26.48;71.93
19751;BME280;4663;49.120;9.730;2023-08-21T06:53:40;98620.25;;;26.62;71.71
19751;BME280;4663;49.120;9.730;2023-08-21T06:56:06;98621.44;;;27.11;71.28
19751;BME280;4663;49.120;9.730;2023-08-21T06:58:32;98623.69;;;27.81;69.70
19751;BME280;4663;49.120;9.730;2023-08-21T07:00:57;98624.28;;;28.16;68.32
19751;BME280;4663;49.120;9.730;2023-08-21T07:03:23;98627.28;;;28.42;68.58
19751;BME280;4663;49.120;9.730;2023-08-21T07:05:55;98619.41;;;28.61;67.65
19751;BME280;4663;49.120;9.730;2023-08-21T07:08:22;98619.53;;;28.39;68.07
19751;BME280;4663;49.120;9.730;2023-08-21T07:10:47;98626.47;;;27.14;70.69
19751;BME280;4663;49.120;9.730;2023-08-21T07:13:13;98631.81;;;27.71;69.51
19751;BME280;4663;49.120;9.730;2023-08-21T07:15:38;98628.19;;;27.65;70.20
19751;BME280;4663;49.120;9.730;2023-08-21T07:18:03;98630.66;;;28.49;67.41
19751;BME280;4663;49.120;9.730;2023-08-21T07:20:29;98622.75;;;29.12;66.90
19751;BME280;4663;49.120;9.730;2023-08-21T07:22:54;98627.63;;;28.18;68.58
19751;BME280;4663;49.120;9.730;2023-08-21T07:25:20;98622.75;;;29.12;66.94
19751;BME280;4663;49.120;9.730;2023-08-21T07:27:45;98641.44;;;28.56;67.55
19751;BME280;4663;49.120;9.730;2023-08-21T07:30:11;98628.25;;;29.71;64.90
19751;BME280;4663;49.120;9.730;2023-08-21T07:32:36;98622.56;;;31.93;61.51
19751;BME280;4663;49.120;9.730;2023-08-21T07:35:02;98627.53;;;29.32;64.57
19751;BME280;4663;49.120;9.730;2023-08-21T07:37:27;98643.03;;;28.14;67.38
19751;BME280;4663;49.120;9.730;2023-08-21T07:39:53;98633.59;;;30.09;63.92
19751;BME280;4663;49.120;9.730;2023-08-21T07:42:18;98630.25;;;30.79;63.17
19751;BME280;4663;49.120;9.730;2023-08-21T07:44:44;98634.69;;;30.75;62.38
19751;BME280;4663;49.120;9.730;2023-08-21T07:47:11;98636.09;;;30.47;63.34
19751;BME280;4663;49.120;9.730;2023-08-21T07:49:36;98636.81;;;31.15;61.73
19751;BME280;4663;49.120;9.730;2023-08-21T07:52:03;98642.44;;;30.26;63.23
19751;BME280;4663;49.120;9.730;2023-08-21T07:54:28;98633.25;;;32.15;59.52
19751;BME280;4663;49.120;9.730;2023-08-21T07:56:54;98638.97;;;32.59;58.96
19751;BME280;4663;49.120;9.730;2023-08-21T07:59:19;98638.91;;;31.44;60.16
19751;BME280;4663;49.120;9.730;2023-08-21T08:01:45;98644.31;;;32.55;60.84
19751;BME280;4663;49.120;9.730;2023-08-21T08:04:10;98639.06;;;32.14;59.66
19751;BME280;4663;49.120;9.730;2023-08-21T08:06:36;98632.44;;;33.91;56.63
19751;BME280;4663;49.120;9.730;2023-08-21T08:09:02;98632.34;;;34.82;55.12
19751;BME280;4663;49.120;9.730;2023-08-21T08:11:29;98634.84;;;34.84;55.66
19751;BME280;4663;49.120;9.730;2023-08-21T08:13:55;98633.72;;;34.18;55.25
19751;BME280;4663;49.120;9.730;2023-08-21T08:16:20;98640.00;;;31.99;59.43
19751;BME280;4663;49.120;9.730;2023-08-21T08:18:46;98637.88;;;32.25;59.42
19751;BME280;4663;49.120;9.730;2023-08-21T08:21:11;98632.91;;;32.86;58.58
19751;BME280;4663;49.120;9.730;2023-08-21T08:23:37;98641.56;;;31.75;60.53
19751;BME280;4663;49.120;9.730;2023-08-21T08:26:02;98639.94;;;31.58;59.88
19751;BME280;4663;49.120;9.730;2023-08-21T08:28:27;98640.72;;;32.20;59.14
19751;BME280;4663;49.120;9.730;2023-08-21T08:30:53;98638.22;;;31.73;59.89
19751;BME280;4663;49.120;9.730;2023-08-21T08:33:19;98636.81;;;31.15;61.70
19751;BME280;4663;49.120;9.730;2023-08-21T08:35:45;98640.41;;;33.10;58.20
19751;BME280;4663;49.120;9.730;2023-08-21T08:38:10;98635.34;;;33.61;57.71
19751;BME280;4663;49.120;9.730;2023-08-21T08:40:44;98632.06;;;33.98;57.30
19751;BME280;4663;49.120;9.730;2023-08-21T08:43:12;98636.72;;;34.55;56.11
19751;BME280;4663;49.120;9.730;2023-08-21T08:45:37;98638.28;;;34.61;56.67
19751;BME280;4663;49.120;9.730;2023-08-21T08:48:04;98635.88;;;34.88;56.13
19751;BME280;4663;49.120;9.730;2023-08-21T08:50:31;98624.44;;;35.18;54.82
19751;BME280;4663;49.120;9.730;2023-08-21T08:52:57;98625.47;;;34.60;55.00
19751;BME280;4663;49.120;9.730;2023-08-21T08:55:23;98628.03;;;33.46;57.53
19751;BME280;4663;49.120;9.730;2023-08-21T08:57:49;98622.28;;;34.20;56.64
19751;BME280;4663;49.120;9.730;2023-08-21T09:00:15;98627.91;;;34.14;56.83
19751;BME280;4663;49.120;9.730;2023-08-21T09:02:41;98614.63;;;35.06;54.89
19751;BME280;4663;49.120;9.730;2023-08-21T09:05:07;98608.63;;;35.27;53.97
19751;BME280;4663;49.120;9.730;2023-08-21T09:07:33;98618.19;;;34.64;54.85
19751;BME280;4663;49.120;9.730;2023-08-21T09:09:59;98613.28;;;35.83;53.14
19751;BME280;4663;49.120;9.730;2023-08-21T09:12:25;98612.28;;;36.24;53.10
19751;BME280;4663;49.120;9.730;2023-08-21T09:14:50;98622.22;;;35.93;53.43
19751;BME280;4663;49.120;9.730;2023-08-21T09:17:16;98609.84;;;34.31;54.35
19751;BME280;4663;49.120;9.730;2023-08-21T09:19:42;98601.84;;;34.91;53.11
19751;BME280;4663;49.120;9.730;2023-08-21T09:22:10;98599.56;;;35.21;51.51
19751;BME280;4663;49.120;9.730;2023-08-21T09:24:37;98597.88;;;34.31;52.79
19751;BME280;4663;49.120;9.730;2023-08-21T09:27:03;98603.03;;;34.04;54.14
19751;BME280;4663;49.120;9.730;2023-08-21T09:29:38;98607.59;;;35.37;52.94
19751;BME280;4663;49.120;9.730;2023-08-21T09:32:08;98609.03;;;35.06;53.37
19751;BME280;4663;49.120;9.730;2023-08-21T09:34:37;98607.72;;;35.18;51.94
19751;BME280;4663;49.120;9.730;2023-08-21T09:37:06;98617.66;;;35.98;51.34
19751;BME280;4663;49.120;9.730;2023-08-21T09:39:35;98620.69;;;34.80;52.66
19751;BME280;4663;49.120;9.730;2023-08-21T09:42:05;98609.00;;;35.48;51.21
19751;BME280;4663;49.120;9.730;2023-08-21T09:44:40;98610.44;;;34.61;52.90
19751;BME280;4663;49.120;9.730;2023-08-21T09:47:10;98610.69;;;32.86;55.21
19751;BME280;4663;49.120;9.730;2023-08-21T09:49:36;98604.09;;;36.28;51.11
19751;BME280;4663;49.120;9.730;2023-08-21T09:52:05;98605.38;;;36.22;51.00
19751;BME280;4663;49.120;9.730;2023-08-21T09:54:31;98598.16;;;36.21;50.73
19751;BME280;4663;49.120;9.730;2023-08-21T09:57:00;98592.81;;;35.08;51.43
19751;BME280;4663;49.120;9.730;2023-08-21T09:59:27;98603.59;;;33.24;54.17
19751;BME280;4663;49.120;9.730;2023-08-21T10:01:53;98591.91;;;35.27;52.38
19751;BME280;4663;49.120;9.730;2023-08-21T10:04:21;98589.38;;;34.41;52.57
19751;BME280;4663;49.120;9.730;2023-08-21T10:06:48;98585.53;;;34.04;54.22
19751;BME280;4663;49.120;9.730;2023-08-21T10:09:15;98585.75;;;34.55;52.27
19751;BME280;4663;49.120;9.730;2023-08-21T10:11:42;98570.69;;;35.91;50.55
19751;BME280;4663;49.120;9.730;2023-08-21T10:14:07;98586.59;;;35.90;51.61
19751;BME280;4663;49.120;9.730;2023-08-21T10:16:33;98579.63;;;36.25;50.77
19751;BME280;4663;49.120;9.730;2023-08-21T10:19:03;98587.72;;;36.58;50.43
19751;BME280;4663;49.120;9.730;2023-08-21T10:21:34;98572.31;;;35.18;50.97
19751;BME280;4663;49.120;9.730;2023-08-21T10:24:01;98567.75;;;34.66;52.57
19751;BME280;4663;49.120;9.730;2023-08-21T10:26:26;98564.28;;;35.90;50.95
19751;BME280;4663;49.120;9.730;2023-08-21T10:28:59;98574.22;;;36.28;50.20
19751;BME280;4663;49.120;9.730;2023-08-21T10:31:40;98571.69;;;34.93;52.70
19751;BME280;4663;49.120;9.730;2023-08-21T10:34:12;98566.53;;;35.14;50.76
19751;BME280;4663;49.120;9.730;2023-08-21T10:39:04;98554.66;;;35.74;51.87
19751;BME280;4663;49.120;9.730;2023-08-21T10:41:37;98564.38;;;34.22;52.86
19751;BME280;4663;49.120;9.730;2023-08-21T10:44:05;98555.81;;;34.65;52.21
19751;BME280;4663;49.120;9.730;2023-08-21T10:46:50;98556.84;;;34.70;52.19
19751;BME280;4663;49.120;9.730;2023-08-21T10:49:15;98548.78;;;34.54;51.44
19751;BME280;4663;49.120;9.730;2023-08-21T10:51:42;98553.22;;;34.69;51.48
19751;BME280;4663;49.120;9.730;2023-08-21T10:54:13;98556.88;;;35.49;50.80
19751;BME280;4663;49.120;9.730;2023-08-21T10:56:39;98553.69;;;35.41;49.85
19751;BME280;4663;49.120;9.730;2023-08-21T10:59:04;98553.75;;;34.71;51.26
19751;BME280;4663;49.120;9.730;2023-08-21T11:01:44;98552.63;;;35.65;50.75
19751;BME280;4663;49.120;9.730;2023-08-21T11:04:11;98549.63;;;34.97;50.68
19751;BME280;4663;49.120;9.730;2023-08-21T11:06:38;98539.50;;;35.29;50.26
19751;BME280;4663;49.120;9.730;2023-08-21T11:09:04;98548.50;;;34.84;50.95
19751;BME280;4663;49.120;9.730;2023-08-21T11:11:29;98556.78;;;33.12;53.16
19751;BME280;4663;49.120;9.730;2023-08-21T11:13:55;98560.09;;;34.58;52.60
19751;BME280;4663;49.120;9.730;2023-08-21T11:16:21;98546.53;;;34.70;51.55
19751;BME280;4663;49.120;9.730;2023-08-21T11:18:46;98548.31;;;35.45;50.34
19751;BME280;4663;49.120;9.730;2023-08-21T11:21:12;98547.84;;;34.11;52.48
19751;BME280;4663;49.120;9.730;2023-08-21T11:23:40;98541.84;;;35.36;50.14
19751;BME280;4663;49.120;9.730;2023-08-21T11:26:07;98546.25;;;35.37;50.98
19751;BME280;4663;49.120;9.730;2023-08-21T11:28:35;98534.66;;;36.03;48.49
19751;BME280;4663;49.120;9.730;2023-08-21T11:31:00;98539.91;;;34.80;50.15
19751;BME280;4663;49.120;9.730;2023-08-21T11:33:27;98547.00;;;34.30;51.18
19751;BME280;4663;49.120;9.730;2023-08-21T11:35:53;98541.22;;;34.07;50.56
19751;BME280;4663;49.120;9.730;2023-08-21T11:38:21;98536.19;;;34.57;50.38
19751;BME280;4663;49.120;9.730;2023-08-21T11:41:02;98544.72;;;33.60;51.77
19751;BME280;4663;49.120;9.730;2023-08-21T11:43:38;98539.13;;;34.65;50.75
19751;BME280;4663;49.120;9.730;2023-08-21T11:46:04;98542.47;;;34.34;53.05
19751;BME280;4663;49.120;9.730;2023-08-21T11:48:30;98542.13;;;34.03;55.14
19751;BME280;4663;49.120;9.730;2023-08-21T11:50:56;98545.59;;;34.75;53.62
19751;BME280;4663;49.120;9.730;2023-08-21T11:53:48;98533.75;;;34.83;50.86
19751;BME280;4663;49.120;9.730;2023-08-21T11:56:16;98536.91;;;34.48;52.92
19751;BME280;4663;49.120;9.730;2023-08-21T11:58:43;98535.16;;;35.09;50.56
19751;BME280;4663;49.120;9.730;2023-08-21T12:01:10;98534.91;;;34.21;53.14
19751;BME280;4663;49.120;9.730;2023-08-21T12:03:40;98529.44;;;34.16;50.71
19751;BME280;4663;49.120;9.730;2023-08-21T12:06:10;98520.09;;;34.39;50.99
19751;BME280;4663;49.120;9.730;2023-08-21T12:08:36;98533.66;;;35.39;49.75
19751;BME280;4663;49.120;9.730;2023-08-21T12:11:02;98522.59;;;35.48;48.92
19751;BME280;4663;49.120;9.730;2023-08-21T12:13:28;98534.75;;;36.12;49.60
19751;BME280;4663;49.120;9.730;2023-08-21T12:15:53;98528.09;;;35.39;50.31
19751;BME280;4663;49.120;9.730;2023-08-21T12:18:19;98520.53;;;34.89;49.61
19751;BME280;4663;49.120;9.730;2023-08-21T12:20:44;98535.28;;;34.89;51.75
19751;BME280;4663;49.120;9.730;2023-08-21T12:23:10;98534.03;;;34.06;53.47
19751;BME280;4663;49.120;9.730;2023-08-21T12:25:35;98536.25;;;33.32;54.29
19751;BME280;4663;49.120;9.730;2023-08-21T12:28:00;98531.03;;;33.06;53.07
19751;BME280;4663;49.120;9.730;2023-08-21T12:30:26;98541.44;;;33.78;54.78
19751;BME280;4663;49.120;9.730;2023-08-21T12:32:51;98542.13;;;33.69;55.52
19751;BME280;4663;49.120;9.730;2023-08-21T12:35:16;98536.19;;;33.57;56.46
19751;BME280;4663;49.120;9.730;2023-08-21T12:37:42;98531.31;;;33.48;55.47
19751;BME280;4663;49.120;9.730;2023-08-21T12:40:08;98527.19;;;33.98;55.65
19751;BME280;4663;49.120;9.730;2023-08-21T12:42:34;98524.19;;;35.26;53.17
19751;BME280;4663;49.120;9.730;2023-08-21T12:44:59;98530.09;;;35.25;53.00
19751;BME280;4663;49.120;9.730;2023-08-21T12:47:25;98515.97;;;35.81;49.90
19751;BME280;4663;49.120;9.730;2023-08-21T12:49:50;98521.50;;;35.35;50.40
19751;BME280;4663;49.120;9.730;2023-08-21T12:52:15;98512.44;;;35.29;49.72
19751;BME280;4663;49.120;9.730;2023-08-21T12:54:41;98514.84;;;35.45;51.03
19751;BME280;4663;49.120;9.730;2023-08-21T12:57:06;98520.69;;;35.07;52.58
19751;BME280;4663;49.120;9.730;2023-08-21T12:59:32;98506.16;;;34.96;50.19
19751;BME280;4663;49.120;9.730;2023-08-21T13:02:01;98505.56;;;34.43;50.23
19751;BME280;4663;49.120;9.730;2023-08-21T13:04:27;98519.25;;;34.39;51.62
19751;BME280;4663;49.120;9.730;2023-08-21T13:06:57;98517.91;;;34.22;53.61
19751;BME280;4663;49.120;9.730;2023-08-21T13:09:23;98523.16;;;33.91;53.84
19751;BME280;4663;49.120;9.730;2023-08-21T13:11:50;98504.41;;;34.30;52.66